This is the latest recevied weather packets stored in our database for station/object OE-11073. If no packets are shown the sender has not sent any weather packets the latest 10 day(s).
| Time | Temp. | Humidity | Pressure | Rain* | Wind** | Luminosity | Snow |
|---|---|---|---|---|---|---|---|
| 1787834483 | 26.11° C | 52% | - | 0 mm | - | 559 W/m² | - |
| 1787834109 | 26.11° C | 56% | - | 0 mm | - | 612 W/m² | - |
| 1787833510 | 26.11° C | 54% | - | 0 mm | - | 650 W/m² | - |
| 1787832683 | 25.56° C | 52% | - | 0 mm | - | 581 W/m² | - |
| 1787832310 | 26.11° C | 54% | - | 0 mm | - | 727 W/m² | - |
| 1787831709 | 26.11° C | 52% | - | 0 mm | - | 734 W/m² | - |
| 1787830883 | 25° C | 48% | - | 0 mm | - | 727 W/m² | - |
| 1787830509 | 25° C | 54% | - | 0 mm | - | 696 W/m² | - |
| 1787829909 | 24.44° C | 49% | - | 0 mm | - | 742 W/m² | - |
| 1787829083 | 24.44° C | 53% | - | 0 mm | - | 734 W/m² | - |
| 1787828710 | 23.89° C | 56% | - | 0 mm | - | 712 W/m² | - |
| 1787828110 | 23.89° C | 59% | - | 0 mm | - | 704 W/m² | - |
| 1787827282 | 23.33° C | 57% | - | 0 mm | - | 689 W/m² | - |
| 1787826909 | 22.78° C | 59% | - | 0 mm | - | 696 W/m² | - |
| 1787826310 | 22.78° C | 61% | - | 0 mm | - | 689 W/m² | - |
| 1787825483 | 22.22° C | 63% | - | 0 mm | - | 689 W/m² | - |
| 1787825110 | 21.67° C | 66% | - | 0 mm | - | 704 W/m² | - |
| 1787824510 | 21.11° C | 68% | - | 0 mm | - | 451 W/m² | - |
| 1787823683 | 21.11° C | 69% | - | 0 mm | - | 543 W/m² | - |
| 1787823310 | 20.56° C | 69% | - | 0 mm | - | 482 W/m² | - |
| 1787822709 | 20° C | 70% | - | 0 mm | - | 344 W/m² | - |
| 1787821883 | 20° C | 72% | - | 0 mm | - | 428 W/m² | - |
| 1787821509 | 19.44° C | 72% | - | 0 mm | - | 329 W/m² | - |
| 1787820910 | 19.44° C | 75% | - | 0 mm | - | 360 W/m² | - |
| 1787820083 | 18.89° C | 73% | - | 0 mm | - | 421 W/m² | - |
* Rain latest hour (hover to see other rain measurements)
** Current wind speed in m/s (hover to see current wind gust speed)